createdAt,value
2023-02-16T00:00:42.465Z,101492.41
2023-02-16T00:03:21.563Z,101495.28
2023-02-16T00:05:50.896Z,101498.25
2023-02-16T00:08:19.950Z,101492.09
2023-02-16T00:11:08.019Z,101492.16
2023-02-16T00:13:44.376Z,101490.53
2023-02-16T00:16:16.944Z,101480.41
2023-02-16T00:18:44.382Z,101489.06
2023-02-16T00:21:12.753Z,101486.88
2023-02-16T00:23:39.802Z,101483.28
2023-02-16T00:26:20.298Z,101479.66
2023-02-16T00:28:59.087Z,101484.47
2023-02-16T00:31:29.020Z,101487.00
2023-02-16T00:33:56.115Z,101493.91
2023-02-16T00:36:26.367Z,101488.84
2023-02-16T00:38:54.441Z,101489.97
2023-02-16T00:41:42.471Z,101488.66
2023-02-16T00:44:19.327Z,101479.97
2023-02-16T00:46:47.736Z,101470.25
2023-02-16T00:49:20.812Z,101474.63
2023-02-16T00:51:49.756Z,101472.66
2023-02-16T00:54:16.835Z,101475.78
2023-02-16T00:56:44.973Z,101478.16
2023-02-16T00:59:19.817Z,101475.28
2023-02-16T01:01:47.510Z,101477.44
2023-02-16T01:04:23.437Z,101480.06
2023-02-16T01:07:09.366Z,101472.59
2023-02-16T01:09:54.782Z,101479.00
2023-02-16T01:12:22.486Z,101470.13
2023-02-16T01:14:54.343Z,101479.84
2023-02-16T01:17:31.692Z,101483.97
2023-02-16T01:19:58.590Z,101490.63
2023-02-16T01:22:25.540Z,101494.63
2023-02-16T01:24:52.534Z,101484.50
2023-02-16T01:27:19.516Z,101491.53
2023-02-16T01:29:46.463Z,101481.09
2023-02-16T01:32:13.562Z,101480.63
2023-02-16T01:34:40.857Z,101475.84
2023-02-16T01:37:15.588Z,101487.75
2023-02-16T01:39:43.651Z,101483.22
2023-02-16T01:42:33.649Z,101475.16
2023-02-16T01:45:16.028Z,101472.94
2023-02-16T01:47:53.371Z,101474.88
2023-02-16T01:50:28.887Z,101478.41
2023-02-16T01:52:58.555Z,101478.06
2023-02-16T01:55:31.742Z,101468.69
2023-02-16T01:58:39.585Z,101463.19
2023-02-16T02:01:40.445Z,101468.94
2023-02-16T02:04:59.821Z,101450.44
2023-02-16T02:07:48.109Z,101460.59
2023-02-16T02:10:26.772Z,101467.47
2023-02-16T02:13:13.061Z,101460.16
2023-02-16T02:15:40.069Z,101450.88
2023-02-16T02:18:09.024Z,101451.75
2023-02-16T02:21:32.550Z,101450.88
2023-02-16T02:24:08.313Z,101449.31
2023-02-16T02:26:51.930Z,101438.91
2023-02-16T02:29:24.704Z,101448.25
2023-02-16T02:32:25.609Z,101452.91
2023-02-16T02:35:47.511Z,101443.91
2023-02-16T02:38:24.518Z,101445.63
2023-02-16T02:40:59.999Z,101445.75
2023-02-16T02:43:39.164Z,101435.16
2023-02-16T02:46:37.934Z,101443.81
2023-02-16T02:49:04.952Z,101443.69
2023-02-16T02:51:33.890Z,101448.03
2023-02-16T02:54:30.759Z,101444.41
2023-02-16T02:57:54.291Z,101445.13
2023-02-16T03:00:42.008Z,101444.78
2023-02-16T03:03:32.065Z,101433.56
2023-02-16T03:06:26.578Z,101440.63
2023-02-16T03:09:04.951Z,101437.03
2023-02-16T03:11:50.418Z,101430.50
2023-02-16T03:14:35.359Z,101434.81
2023-02-16T03:17:31.830Z,101445.50
2023-02-16T03:20:20.872Z,101435.13
2023-02-16T03:23:06.135Z,101422.97
2023-02-16T03:25:56.081Z,101429.22
2023-02-16T03:28:46.831Z,101426.59
2023-02-16T03:31:22.807Z,101430.38
2023-02-16T03:33:54.747Z,101427.03
2023-02-16T03:36:27.528Z,101421.84
2023-02-16T03:38:56.101Z,101434.00
2023-02-16T03:41:24.745Z,101431.06
2023-02-16T03:43:52.073Z,101426.97
2023-02-16T03:46:23.098Z,101426.25
2023-02-16T03:48:50.110Z,101427.22
2023-02-16T03:51:18.122Z,101433.25
2023-02-16T03:53:45.142Z,101430.75
2023-02-16T03:56:12.090Z,101427.88
2023-02-16T03:58:39.284Z,101438.81
2023-02-16T04:01:06.799Z,101441.97
2023-02-16T04:03:34.175Z,101447.47
2023-02-16T04:06:01.400Z,101442.25
2023-02-16T04:08:29.439Z,101440.94
2023-02-16T04:10:57.522Z,101444.38
2023-02-16T04:13:25.083Z,101442.47
2023-02-16T04:15:52.779Z,101446.44
2023-02-16T04:18:19.864Z,101441.00
2023-02-16T04:20:46.785Z,101446.84
2023-02-16T04:23:13.678Z,101452.59
2023-02-16T04:25:42.739Z,101444.50
2023-02-16T04:28:09.714Z,101445.09
2023-02-16T04:30:36.814Z,101442.34
2023-02-16T04:33:04.861Z,101446.72
2023-02-16T04:35:33.853Z,101447.53
2023-02-16T04:38:01.824Z,101443.38
2023-02-16T04:40:28.880Z,101447.84
2023-02-16T04:42:55.767Z,101449.41
2023-02-16T04:45:22.677Z,101448.03
2023-02-16T04:47:49.605Z,101438.59
2023-02-16T04:50:18.687Z,101448.34
2023-02-16T04:52:45.835Z,101449.88
2023-02-16T04:55:14.315Z,101450.59
2023-02-16T04:57:42.371Z,101441.75
2023-02-16T05:00:11.950Z,101439.69
2023-02-16T05:02:38.940Z,101444.50
2023-02-16T05:05:06.297Z,101449.31
2023-02-16T05:07:36.220Z,101456.19
2023-02-16T05:10:03.521Z,101442.00
2023-02-16T05:12:50.684Z,101434.06
2023-02-16T05:15:17.670Z,101438.50
2023-02-16T05:17:45.615Z,101455.47
2023-02-16T05:20:13.138Z,101443.97
2023-02-16T05:22:40.024Z,101450.22
2023-02-16T05:25:07.721Z,101444.50
2023-02-16T05:27:34.736Z,101436.84
2023-02-16T05:30:01.906Z,101447.47
2023-02-16T05:32:30.039Z,101439.03
2023-02-16T05:34:56.977Z,101441.97
2023-02-16T05:37:23.920Z,101444.50
2023-02-16T05:39:52.734Z,101438.38
2023-02-16T05:42:19.647Z,101432.34
2023-02-16T05:44:46.576Z,101438.88
2023-02-16T05:47:17.472Z,101447.09
2023-02-16T05:49:44.501Z,101439.38
2023-02-16T05:52:12.498Z,101437.22
2023-02-16T05:54:39.400Z,101439.13
2023-02-16T05:57:06.790Z,101452.25
2023-02-16T05:59:33.639Z,101449.66
2023-02-16T06:02:01.679Z,101452.84
2023-02-16T06:04:29.008Z,101448.22
2023-02-16T06:06:56.915Z,101446.53
2023-02-16T06:09:23.969Z,101450.63
2023-02-16T06:11:51.867Z,101450.09
2023-02-16T06:14:22.060Z,101448.00
2023-02-16T06:16:51.671Z,101449.41
2023-02-16T06:19:19.951Z,101457.38
2023-02-16T06:21:47.756Z,101460.50
2023-02-16T06:24:16.126Z,101456.66
2023-02-16T06:26:44.218Z,101459.84
2023-02-16T06:29:12.183Z,101457.66
2023-02-16T06:31:39.300Z,101470.81
2023-02-16T06:34:06.712Z,101473.13
2023-02-16T06:36:34.208Z,101478.81
2023-02-16T06:39:02.397Z,101484.66
2023-02-16T06:41:32.106Z,101491.25
2023-02-16T06:44:05.233Z,101483.19
2023-02-16T06:46:32.758Z,101485.31
2023-02-16T06:49:02.363Z,101486.97
2023-02-16T06:51:31.826Z,101487.81
2023-02-16T06:53:59.199Z,101494.28
2023-02-16T06:56:26.349Z,101481.28
2023-02-16T06:58:54.380Z,101485.31
2023-02-16T07:01:26.069Z,101486.59
2023-02-16T07:03:55.770Z,101481.56
2023-02-16T07:06:26.003Z,101487.78
2023-02-16T07:08:53.764Z,101491.13
2023-02-16T07:11:21.348Z,101496.13
2023-02-16T07:13:48.350Z,101499.31
2023-02-16T07:16:15.706Z,101493.44
2023-02-16T07:18:43.319Z,101502.66
2023-02-16T07:21:11.491Z,101490.78
2023-02-16T07:23:38.499Z,101484.19
2023-02-16T07:26:06.532Z,101494.44
2023-02-16T07:28:33.542Z,101494.47
2023-02-16T07:31:14.010Z,101487.63
2023-02-16T07:33:41.369Z,101483.06
2023-02-16T07:36:11.767Z,101489.19
2023-02-16T07:38:41.875Z,101483.16
2023-02-16T07:41:10.133Z,101492.97
2023-02-16T07:43:39.234Z,101491.75
2023-02-16T07:46:06.296Z,101485.66
2023-02-16T07:48:33.260Z,101494.03
2023-02-16T07:51:00.266Z,101488.78
2023-02-16T07:53:27.276Z,101488.78
2023-02-16T07:55:57.100Z,101489.09
2023-02-16T07:58:27.379Z,101483.97
2023-02-16T08:01:09.642Z,101487.19
2023-02-16T08:03:36.748Z,101493.25
2023-02-16T08:06:05.457Z,101486.22
2023-02-16T08:08:32.738Z,101493.50
2023-02-16T08:11:00.961Z,101496.34
2023-02-16T08:13:27.936Z,101498.31
2023-02-16T08:15:55.983Z,101497.34
2023-02-16T08:18:22.895Z,101492.53
2023-02-16T08:21:03.188Z,101496.00
2023-02-16T08:23:31.687Z,101499.22
2023-02-16T08:25:59.765Z,101485.28
2023-02-16T08:28:28.873Z,101500.06
2023-02-16T08:30:56.462Z,101510.09
2023-02-16T08:33:23.511Z,101502.25
2023-02-16T08:35:50.407Z,101489.81
2023-02-16T08:38:17.365Z,101490.50
2023-02-16T08:40:49.288Z,101488.28
2023-02-16T08:43:16.292Z,101498.28
2023-02-16T08:45:49.708Z,101493.16
2023-02-16T08:48:17.843Z,101488.25
2023-02-16T08:50:55.070Z,101498.00
2023-02-16T08:53:23.223Z,101503.34
2023-02-16T08:55:58.652Z,101491.78
2023-02-16T08:58:26.899Z,101489.38
2023-02-16T09:00:53.869Z,101499.28
2023-02-16T09:03:20.855Z,101489.91
2023-02-16T09:05:50.021Z,101489.16
2023-02-16T09:08:17.393Z,101493.94
2023-02-16T09:10:46.973Z,101501.16
2023-02-16T09:13:16.461Z,101502.19
2023-02-16T09:15:48.107Z,101499.44
2023-02-16T09:18:16.584Z,101490.47
2023-02-16T09:20:46.873Z,101484.53
2023-02-16T09:23:14.034Z,101480.72
2023-02-16T09:25:41.920Z,101478.06
2023-02-16T09:28:10.831Z,101469.00
2023-02-16T09:30:39.176Z,101471.50
2023-02-16T09:33:07.798Z,101461.56
2023-02-16T09:35:34.707Z,101457.69
2023-02-16T09:38:02.477Z,101461.47
2023-02-16T09:40:30.308Z,101445.78
2023-02-16T09:43:14.671Z,101453.94
2023-02-16T09:45:49.517Z,101442.31
2023-02-16T09:48:42.870Z,101442.63
2023-02-16T09:51:20.925Z,101432.66
2023-02-16T09:54:03.809Z,101428.50
2023-02-16T09:56:51.653Z,101442.66
2023-02-16T09:59:52.346Z,101429.91
2023-02-16T10:02:52.808Z,101419.81
2023-02-16T10:05:31.170Z,101415.06
2023-02-16T10:08:14.450Z,101406.47
2023-02-16T10:11:31.292Z,101397.84
2023-02-16T10:14:08.012Z,101390.56
2023-02-16T10:16:46.788Z,101397.53
2023-02-16T10:19:40.276Z,101384.03
2023-02-16T10:22:17.363Z,101377.78
2023-02-16T10:25:02.505Z,101363.34
2023-02-16T10:27:40.625Z,101366.06
2023-02-16T10:30:23.038Z,101364.91
2023-02-16T10:33:14.315Z,101363.88
2023-02-16T10:35:52.415Z,101368.31
2023-02-16T10:38:38.183Z,101357.34
2023-02-16T10:41:23.009Z,101357.34
2023-02-16T10:43:55.269Z,101354.53
2023-02-16T10:46:26.383Z,101356.00
2023-02-16T10:48:55.612Z,101355.19
2023-02-16T10:51:28.227Z,101350.19
2023-02-16T10:54:08.816Z,101341.72
2023-02-16T10:56:44.463Z,101335.38
2023-02-16T10:59:33.959Z,101335.66
2023-02-16T11:02:09.208Z,101328.28
2023-02-16T11:04:43.052Z,101332.56
2023-02-16T11:07:18.757Z,101336.38
2023-02-16T11:09:53.894Z,101332.53
2023-02-16T11:12:41.776Z,101340.59
2023-02-16T11:15:25.236Z,101333.59
2023-02-16T11:17:58.138Z,101333.38
2023-02-16T11:20:34.693Z,101322.84
2023-02-16T11:23:28.977Z,101327.56
2023-02-16T11:26:12.505Z,101324.03
2023-02-16T11:28:44.013Z,101305.09
2023-02-16T11:31:33.361Z,101303.31
2023-02-16T11:34:13.889Z,101298.34
2023-02-16T11:36:43.647Z,101301.97
2023-02-16T11:39:24.512Z,101303.06
2023-02-16T11:42:26.424Z,101288.75
2023-02-16T11:44:58.833Z,101284.84
2023-02-16T11:47:36.666Z,101277.69
2023-02-16T11:50:32.800Z,101272.97
2023-02-16T11:53:12.306Z,101264.75
2023-02-16T11:55:46.820Z,101261.59
2023-02-16T11:58:23.005Z,101259.47
2023-02-16T12:01:25.853Z,101256.91
2023-02-16T12:04:46.328Z,101252.56
2023-02-16T12:07:37.521Z,101253.88
2023-02-16T12:10:29.008Z,101253.19
2023-02-16T12:13:26.568Z,101248.66
2023-02-16T12:16:08.965Z,101240.75
2023-02-16T12:18:51.489Z,101255.16
2023-02-16T12:21:43.089Z,101245.97
2023-02-16T12:24:22.560Z,101250.69
2023-02-16T12:26:57.756Z,101246.81
2023-02-16T12:29:54.137Z,101240.19
2023-02-16T12:32:46.959Z,101230.59
2023-02-16T12:35:56.898Z,101228.78
2023-02-16T12:38:47.150Z,101237.72
2023-02-16T12:41:25.672Z,101231.06
2023-02-16T12:43:59.268Z,101221.38
2023-02-16T12:46:43.136Z,101213.16
2023-02-16T12:49:18.529Z,101201.78
2023-02-16T12:52:00.592Z,101203.69
2023-02-16T12:54:45.029Z,101201.38
2023-02-16T12:57:18.305Z,101190.16
2023-02-16T13:00:17.824Z,101192.53
2023-02-16T13:02:51.607Z,101186.22
2023-02-16T13:05:25.948Z,101184.84
2023-02-16T13:08:06.471Z,101183.63
2023-02-16T13:10:52.252Z,101187.91
2023-02-16T13:13:25.165Z,101181.72
2023-02-16T13:16:27.481Z,101178.16
2023-02-16T13:18:57.204Z,101180.69
2023-02-16T13:22:13.524Z,101172.03
2023-02-16T13:25:14.681Z,101164.75
2023-02-16T13:27:45.525Z,101164.63
2023-02-16T13:31:04.697Z,101160.19
2023-02-16T13:34:19.461Z,101157.88
2023-02-16T13:37:20.778Z,101148.25
2023-02-16T13:40:24.866Z,101148.94
2023-02-16T13:43:20.942Z,101148.66
2023-02-16T13:45:53.807Z,101140.28
2023-02-16T13:48:48.788Z,101136.47
2023-02-16T13:51:23.315Z,101132.44
2023-02-16T13:54:02.420Z,101125.69
2023-02-16T13:56:29.826Z,101110.16
2023-02-16T13:59:00.140Z,101113.47
2023-02-16T14:01:37.681Z,101103.97
2023-02-16T14:04:12.084Z,101105.22
2023-02-16T14:06:43.378Z,101107.56
2023-02-16T14:09:16.418Z,101102.06
2023-02-16T14:12:11.501Z,101101.38
2023-02-16T14:14:57.361Z,101098.34
2023-02-16T14:17:28.816Z,101102.47
2023-02-16T14:20:05.240Z,101092.31
2023-02-16T14:22:57.278Z,101094.53
2023-02-16T14:25:24.213Z,101102.31
2023-02-16T14:27:58.794Z,101102.47
2023-02-16T14:30:53.427Z,101105.09
2023-02-16T14:33:48.556Z,101103.00
2023-02-16T14:36:20.193Z,101102.19
2023-02-16T14:38:52.049Z,101105.38
2023-02-16T14:41:33.836Z,101106.34
2023-02-16T14:44:06.757Z,101108.22
2023-02-16T14:46:58.254Z,101111.41
2023-02-16T14:50:11.754Z,101110.03
2023-02-16T14:53:03.830Z,101107.69
2023-02-16T14:56:25.658Z,101107.84
2023-02-16T14:59:25.127Z,101109.91
2023-02-16T15:01:52.156Z,101115.25
2023-02-16T15:04:33.655Z,101114.59
2023-02-16T15:07:05.353Z,101116.50
2023-02-16T15:09:34.724Z,101122.28
2023-02-16T15:12:24.122Z,101120.06
2023-02-16T15:14:58.193Z,101127.34
2023-02-16T15:17:38.031Z,101113.91
2023-02-16T15:20:24.964Z,101128.19
2023-02-16T15:22:59.066Z,101123.25
2023-02-16T15:25:27.790Z,101116.91
2023-02-16T15:28:05.929Z,101121.72
2023-02-16T15:30:36.139Z,101131.59
2023-02-16T15:33:26.883Z,101137.94
2023-02-16T15:36:01.775Z,101134.09
2023-02-16T15:38:39.708Z,101135.56
2023-02-16T15:41:26.321Z,101122.25
2023-02-16T15:43:53.589Z,101121.16
2023-02-16T15:46:39.735Z,101124.88
2023-02-16T15:49:15.052Z,101129.41
2023-02-16T15:51:43.208Z,101132.16
2023-02-16T15:54:27.760Z,101137.88
2023-02-16T15:57:00.682Z,101141.59
2023-02-16T15:59:41.341Z,101138.44
2023-02-16T16:02:43.962Z,101136.28
2023-02-16T16:05:28.641Z,101133.78
2023-02-16T16:07:57.226Z,101135.81
2023-02-16T16:10:36.765Z,101133.09
2023-02-16T16:13:08.857Z,101129.09
2023-02-16T16:15:43.213Z,101131.56
2023-02-16T16:18:51.040Z,101125.84
2023-02-16T16:21:19.857Z,101122.66
2023-02-16T16:24:03.501Z,101120.88
2023-02-16T16:27:13.595Z,101117.25
2023-02-16T16:29:47.625Z,101113.84
2023-02-16T16:32:18.400Z,101114.78
2023-02-16T16:34:45.740Z,101123.44
2023-02-16T16:37:27.106Z,101128.66
2023-02-16T16:40:01.964Z,101129.66
2023-02-16T16:42:31.082Z,101135.16
2023-02-16T16:45:25.565Z,101131.84
2023-02-16T16:47:52.952Z,101121.28
2023-02-16T16:50:39.488Z,101130.72
2023-02-16T16:53:31.391Z,101139.19
2023-02-16T16:56:00.599Z,101141.66
2023-02-16T16:58:30.665Z,101141.25
2023-02-16T17:00:57.998Z,101146.47
2023-02-16T17:03:25.334Z,101148.47
2023-02-16T17:05:52.577Z,101156.84
2023-02-16T17:08:19.727Z,101161.56
2023-02-16T17:10:46.890Z,101164.41
2023-02-16T17:13:19.462Z,101159.78
2023-02-16T17:15:58.018Z,101164.09
2023-02-16T17:18:25.036Z,101158.78
2023-02-16T17:20:53.321Z,101166.59
2023-02-16T17:23:22.215Z,101158.50
2023-02-16T17:25:50.680Z,101162.09
2023-02-16T17:28:19.959Z,101161.59
2023-02-16T17:30:46.918Z,101164.09
2023-02-16T17:33:14.227Z,101158.63
2023-02-16T17:35:43.486Z,101163.78
2023-02-16T17:38:19.231Z,101164.94
2023-02-16T17:40:52.283Z,101170.50
2023-02-16T17:43:21.895Z,101168.16
2023-02-16T17:45:49.693Z,101160.56
2023-02-16T17:48:21.610Z,101160.53
2023-02-16T17:50:49.420Z,101164.53
2023-02-16T17:53:19.798Z,101166.00
2023-02-16T17:55:50.165Z,101159.50
2023-02-16T17:58:17.967Z,101162.63
2023-02-16T18:00:46.077Z,101174.00
2023-02-16T18:03:13.128Z,101178.09
2023-02-16T18:05:40.200Z,101171.13
2023-02-16T18:08:07.674Z,101177.84
2023-02-16T18:10:46.662Z,101171.47
2023-02-16T18:13:14.557Z,101174.63
2023-02-16T18:15:46.158Z,101171.41
2023-02-16T18:18:17.530Z,101181.75
2023-02-16T18:20:45.202Z,101179.28
2023-02-16T18:23:12.192Z,101177.47
2023-02-16T18:25:43.929Z,101175.47
2023-02-16T18:28:21.117Z,101173.34
2023-02-16T18:30:49.267Z,101174.84
2023-02-16T18:33:19.014Z,101166.47
2023-02-16T18:35:45.921Z,101169.56
2023-02-16T18:38:13.310Z,101172.50
2023-02-16T18:40:43.453Z,101170.19
2023-02-16T18:43:11.523Z,101163.41
2023-02-16T18:45:40.837Z,101163.97
2023-02-16T18:48:08.565Z,101158.97
2023-02-16T18:50:36.896Z,101161.31
2023-02-16T18:53:04.006Z,101161.69
2023-02-16T18:55:34.002Z,101167.78
2023-02-16T18:58:07.724Z,101156.22
2023-02-16T19:00:36.290Z,101162.03
2023-02-16T19:03:03.560Z,101165.41
2023-02-16T19:05:32.660Z,101160.38
2023-02-16T19:07:59.984Z,101165.94
2023-02-16T19:10:27.435Z,101162.97
2023-02-16T19:12:54.308Z,101175.81
2023-02-16T19:15:21.486Z,101171.84
2023-02-16T19:17:48.772Z,101173.44
2023-02-16T19:20:18.470Z,101175.41
2023-02-16T19:22:46.732Z,101173.16
2023-02-16T19:25:14.781Z,101177.59
2023-02-16T19:27:42.246Z,101184.81
2023-02-16T19:30:09.926Z,101167.91
2023-02-16T19:32:38.480Z,101172.06
2023-02-16T19:35:05.581Z,101165.63
2023-02-16T19:37:32.483Z,101162.97
2023-02-16T19:39:59.444Z,101164.38
2023-02-16T19:42:26.351Z,101163.41
2023-02-16T19:44:53.397Z,101164.84
2023-02-16T19:47:20.363Z,101162.50
2023-02-16T19:49:47.268Z,101158.66
2023-02-16T19:52:14.177Z,101164.13
2023-02-16T19:54:41.378Z,101163.22
2023-02-16T19:57:08.267Z,101167.88
2023-02-16T19:59:35.281Z,101171.75
2023-02-16T20:02:02.347Z,101172.63
2023-02-16T20:04:29.414Z,101165.81
2023-02-16T20:06:56.496Z,101161.94
2023-02-16T20:09:24.790Z,101168.19
2023-02-16T20:11:52.366Z,101166.22
2023-02-16T20:14:19.342Z,101171.34
2023-02-16T20:16:46.375Z,101163.97
2023-02-16T20:19:13.382Z,101168.63
2023-02-16T20:21:44.101Z,101170.72
2023-02-16T20:24:13.984Z,101158.88
2023-02-16T20:26:45.164Z,101167.28
2023-02-16T20:29:16.264Z,101159.09
2023-02-16T20:31:55.592Z,101154.63
2023-02-16T20:34:26.376Z,101160.56
2023-02-16T20:36:54.322Z,101157.19
2023-02-16T20:39:22.198Z,101146.63
2023-02-16T20:41:49.449Z,101152.56
2023-02-16T20:44:18.458Z,101152.78
2023-02-16T20:46:45.524Z,101150.50
2023-02-16T20:49:13.469Z,101146.38
2023-02-16T20:51:41.379Z,101139.97
2023-02-16T20:54:08.622Z,101139.59
2023-02-16T20:56:35.560Z,101144.34
2023-02-16T20:59:02.722Z,101147.34
2023-02-16T21:01:52.847Z,101143.41
2023-02-16T21:04:20.708Z,101144.31
2023-02-16T21:06:49.557Z,101148.03
2023-02-16T21:09:17.128Z,101141.03
2023-02-16T21:11:44.275Z,101138.53
2023-02-16T21:14:13.357Z,101141.44
2023-02-16T21:16:41.091Z,101139.34
2023-02-16T21:19:20.928Z,101138.44
2023-02-16T21:21:49.542Z,101139.47
2023-02-16T21:24:16.583Z,101137.19
2023-02-16T21:26:43.757Z,101136.09
2023-02-16T21:29:10.726Z,101140.22
2023-02-16T21:31:37.754Z,101135.47
2023-02-16T21:34:04.763Z,101134.44
2023-02-16T21:36:31.756Z,101140.75
2023-02-16T21:39:02.746Z,101133.31
2023-02-16T21:41:30.599Z,101135.28
2023-02-16T21:44:01.539Z,101123.47
2023-02-16T21:46:35.618Z,101124.59
2023-02-16T21:49:11.129Z,101125.75
2023-02-16T21:51:41.190Z,101121.94
2023-02-16T21:54:14.158Z,101119.00
2023-02-16T21:56:45.154Z,101112.50
2023-02-16T21:59:15.300Z,101106.69
2023-02-16T22:01:50.931Z,101103.72
2023-02-16T22:04:21.781Z,101107.47
2023-02-16T22:06:50.637Z,101102.38
2023-02-16T22:09:21.266Z,101099.53
2023-02-16T22:11:49.572Z,101104.22
2023-02-16T22:14:16.587Z,101117.09
2023-02-16T22:16:46.109Z,101114.88
2023-02-16T22:19:15.738Z,101105.69
2023-02-16T22:21:44.533Z,101112.69
2023-02-16T22:24:17.124Z,101102.25
2023-02-16T22:26:45.180Z,101100.63
2023-02-16T22:29:12.548Z,101103.31
2023-02-16T22:31:45.171Z,101104.22
2023-02-16T22:34:16.088Z,101103.72
2023-02-16T22:36:43.213Z,101107.00
2023-02-16T22:39:13.071Z,101098.75
2023-02-16T22:41:40.107Z,101096.53
2023-02-16T22:44:07.917Z,101102.50
2023-02-16T22:46:35.405Z,101099.06
2023-02-16T22:49:02.629Z,101103.91
2023-02-16T22:51:30.835Z,101109.63
2023-02-16T22:54:00.103Z,101105.56
2023-02-16T22:56:27.602Z,101106.31
2023-02-16T22:58:57.511Z,101102.75
2023-02-16T23:01:29.330Z,101104.59
2023-02-16T23:03:59.733Z,101105.56
2023-02-16T23:06:33.483Z,101109.66
2023-02-16T23:09:13.455Z,101109.50
2023-02-16T23:11:40.462Z,101109.47
2023-02-16T23:14:16.233Z,101115.59
2023-02-16T23:16:49.517Z,101112.41
2023-02-16T23:19:22.059Z,101109.88
2023-02-16T23:21:49.493Z,101121.03
2023-02-16T23:24:20.924Z,101114.78
2023-02-16T23:26:48.792Z,101114.66
2023-02-16T23:29:15.911Z,101111.78
2023-02-16T23:31:46.875Z,101112.78
2023-02-16T23:34:15.058Z,101113.47
2023-02-16T23:36:42.260Z,101110.88
2023-02-16T23:39:13.460Z,101124.38
2023-02-16T23:41:41.684Z,101122.00
2023-02-16T23:44:10.375Z,101117.69
2023-02-16T23:46:37.409Z,101124.59
2023-02-16T23:49:04.377Z,101121.56
2023-02-16T23:51:31.375Z,101118.38
2023-02-16T23:53:58.290Z,101123.13
2023-02-16T23:56:27.830Z,101120.16
2023-02-16T23:59:02.008Z,101114.78
